sensor_id;sensor_type;location;lat;lon;timestamp;P1;durP1;ratioP1;P2;durP2;ratioP2
23800;SDS011;12081;48.614;10.226;2023-09-19T00:02:15;2.43;;;1.53;;
23800;SDS011;12081;48.614;10.226;2023-09-19T00:05:00;4.13;;;1.20;;
23800;SDS011;12081;48.614;10.226;2023-09-19T00:07:52;2.80;;;1.40;;
23800;SDS011;12081;48.614;10.226;2023-09-19T00:10:42;1.30;;;0.97;;
23800;SDS011;12081;48.614;10.226;2023-09-19T00:13:27;3.00;;;1.37;;
23800;SDS011;12081;48.614;10.226;2023-09-19T00:16:12;3.97;;;1.17;;
23800;SDS011;12081;48.614;10.226;2023-09-19T00:18:58;4.30;;;1.03;;
23800;SDS011;12081;48.614;10.226;2023-09-19T00:21:48;4.00;;;1.50;;
23800;SDS011;12081;48.614;10.226;2023-09-19T00:24:32;0.87;;;0.70;;
23800;SDS011;12081;48.614;10.226;2023-09-19T00:27:16;6.10;;;1.20;;
23800;SDS011;12081;48.614;10.226;2023-09-19T00:30:00;2.23;;;1.30;;
23800;SDS011;12081;48.614;10.226;2023-09-19T00:32:44;1.27;;;0.90;;
23800;SDS011;12081;48.614;10.226;2023-09-19T00:35:31;3.33;;;1.00;;
23800;SDS011;12081;48.614;10.226;2023-09-19T00:38:15;1.33;;;0.90;;
23800;SDS011;12081;48.614;10.226;2023-09-19T00:41:02;2.13;;;0.90;;
23800;SDS011;12081;48.614;10.226;2023-09-19T00:43:46;2.27;;;0.77;;
23800;SDS011;12081;48.614;10.226;2023-09-19T00:46:31;2.67;;;0.97;;
23800;SDS011;12081;48.614;10.226;2023-09-19T00:49:16;3.53;;;0.90;;
23800;SDS011;12081;48.614;10.226;2023-09-19T00:52:00;1.97;;;0.77;;
23800;SDS011;12081;48.614;10.226;2023-09-19T00:54:48;0.83;;;0.63;;
23800;SDS011;12081;48.614;10.226;2023-09-19T00:57:34;2.00;;;0.60;;
23800;SDS011;12081;48.614;10.226;2023-09-19T01:00:22;5.43;;;1.03;;
23800;SDS011;12081;48.614;10.226;2023-09-19T01:03:15;2.07;;;0.80;;
23800;SDS011;12081;48.614;10.226;2023-09-19T01:06:02;0.80;;;0.60;;
23800;SDS011;12081;48.614;10.226;2023-09-19T01:08:49;2.50;;;1.00;;
23800;SDS011;12081;48.614;10.226;2023-09-19T01:11:36;1.63;;;0.70;;
23800;SDS011;12081;48.614;10.226;2023-09-19T01:14:38;1.63;;;0.70;;
23800;SDS011;12081;48.614;10.226;2023-09-19T01:17:56;1.70;;;0.60;;
23800;SDS011;12081;48.614;10.226;2023-09-19T01:30:35;1.63;;;0.70;;
23800;SDS011;12081;48.614;10.226;2023-09-19T01:33:23;2.70;;;0.43;;
23800;SDS011;12081;48.614;10.226;2023-09-19T01:36:08;1.93;;;0.80;;
23800;SDS011;12081;48.614;10.226;2023-09-19T01:38:52;1.23;;;0.50;;
23800;SDS011;12081;48.614;10.226;2023-09-19T01:41:51;2.90;;;0.80;;
23800;SDS011;12081;48.614;10.226;2023-09-19T01:47:53;1.57;;;0.70;;
23800;SDS011;12081;48.614;10.226;2023-09-19T01:50:59;1.30;;;0.70;;
23800;SDS011;12081;48.614;10.226;2023-09-19T01:53:50;3.73;;;0.70;;
23800;SDS011;12081;48.614;10.226;2023-09-19T01:59:52;1.00;;;0.63;;
23800;SDS011;12081;48.614;10.226;2023-09-19T02:02:44;1.40;;;0.50;;
23800;SDS011;12081;48.614;10.226;2023-09-19T02:05:31;1.43;;;0.53;;
23800;SDS011;12081;48.614;10.226;2023-09-19T02:08:17;1.13;;;0.53;;
23800;SDS011;12081;48.614;10.226;2023-09-19T02:11:03;1.47;;;0.67;;
23800;SDS011;12081;48.614;10.226;2023-09-19T02:13:47;1.30;;;0.70;;
23800;SDS011;12081;48.614;10.226;2023-09-19T02:16:38;0.97;;;0.60;;
23800;SDS011;12081;48.614;10.226;2023-09-19T02:19:22;2.00;;;0.70;;
23800;SDS011;12081;48.614;10.226;2023-09-19T02:22:07;0.90;;;0.57;;
23800;SDS011;12081;48.614;10.226;2023-09-19T02:24:53;1.53;;;0.60;;
23800;SDS011;12081;48.614;10.226;2023-09-19T02:27:38;1.33;;;0.60;;
23800;SDS011;12081;48.614;10.226;2023-09-19T02:30:23;0.97;;;0.77;;
23800;SDS011;12081;48.614;10.226;2023-09-19T02:33:10;1.17;;;0.43;;
23800;SDS011;12081;48.614;10.226;2023-09-19T02:35:55;1.33;;;0.63;;
23800;SDS011;12081;48.614;10.226;2023-09-19T02:38:44;0.70;;;0.60;;
23800;SDS011;12081;48.614;10.226;2023-09-19T02:41:28;4.10;;;0.50;;
23800;SDS011;12081;48.614;10.226;2023-09-19T02:44:13;0.90;;;0.70;;
23800;SDS011;12081;48.614;10.226;2023-09-19T02:46:58;2.77;;;0.60;;
23800;SDS011;12081;48.614;10.226;2023-09-19T02:49:43;0.73;;;0.60;;
23800;SDS011;12081;48.614;10.226;2023-09-19T02:52:27;1.17;;;0.80;;
23800;SDS011;12081;48.614;10.226;2023-09-19T02:55:12;1.43;;;0.80;;
23800;SDS011;12081;48.614;10.226;2023-09-19T02:57:58;0.90;;;0.50;;
23800;SDS011;12081;48.614;10.226;2023-09-19T03:00:43;2.37;;;0.60;;
23800;SDS011;12081;48.614;10.226;2023-09-19T03:03:31;0.87;;;0.67;;
23800;SDS011;12081;48.614;10.226;2023-09-19T05:32:37;3.83;;;1.57;;
23800;SDS011;12081;48.614;10.226;2023-09-19T05:35:25;3.13;;;1.40;;
23800;SDS011;12081;48.614;10.226;2023-09-19T05:38:10;3.30;;;1.50;;
23800;SDS011;12081;48.614;10.226;2023-09-19T05:40:56;2.63;;;1.63;;
23800;SDS011;12081;48.614;10.226;2023-09-19T05:43:41;3.50;;;1.57;;
23800;SDS011;12081;48.614;10.226;2023-09-19T05:46:25;4.80;;;1.80;;
23800;SDS011;12081;48.614;10.226;2023-09-19T05:49:13;3.53;;;1.50;;
23800;SDS011;12081;48.614;10.226;2023-09-19T05:51:59;2.30;;;1.40;;
23800;SDS011;12081;48.614;10.226;2023-09-19T05:54:45;4.50;;;1.77;;
23800;SDS011;12081;48.614;10.226;2023-09-19T05:57:29;3.10;;;1.60;;
23800;SDS011;12081;48.614;10.226;2023-09-19T06:00:14;3.03;;;1.50;;
23800;SDS011;12081;48.614;10.226;2023-09-19T06:02:59;2.40;;;1.50;;
23800;SDS011;12081;48.614;10.226;2023-09-19T06:05:43;3.47;;;1.27;;
23800;SDS011;12081;48.614;10.226;2023-09-19T06:08:29;4.87;;;1.30;;
23800;SDS011;12081;48.614;10.226;2023-09-19T06:11:14;1.93;;;1.40;;
23800;SDS011;12081;48.614;10.226;2023-09-19T06:13:58;1.83;;;1.10;;
23800;SDS011;12081;48.614;10.226;2023-09-19T06:16:44;4.63;;;1.23;;
23800;SDS011;12081;48.614;10.226;2023-09-19T06:19:29;2.20;;;1.20;;
23800;SDS011;12081;48.614;10.226;2023-09-19T06:22:14;1.83;;;1.00;;
23800;SDS011;12081;48.614;10.226;2023-09-19T06:25:02;1.85;;;1.00;;
23800;SDS011;12081;48.614;10.226;2023-09-19T06:27:53;3.15;;;1.10;;
23800;SDS011;12081;48.614;10.226;2023-09-19T06:30:38;2.17;;;1.30;;
23800;SDS011;12081;48.614;10.226;2023-09-19T06:33:26;5.43;;;1.65;;
23800;SDS011;12081;48.614;10.226;2023-09-19T06:36:09;4.13;;;1.20;;
23800;SDS011;12081;48.614;10.226;2023-09-19T06:38:55;2.75;;;1.17;;
23800;SDS011;12081;48.614;10.226;2023-09-19T06:41:38;2.42;;;1.20;;
23800;SDS011;12081;48.614;10.226;2023-09-19T06:44:25;2.30;;;1.20;;
23800;SDS011;12081;48.614;10.226;2023-09-19T06:47:09;15.93;;;2.35;;
23800;SDS011;12081;48.614;10.226;2023-09-19T06:49:54;5.27;;;1.47;;
23800;SDS011;12081;48.614;10.226;2023-09-19T06:52:38;4.33;;;1.20;;
23800;SDS011;12081;48.614;10.226;2023-09-19T06:55:23;1.67;;;1.40;;
23800;SDS011;12081;48.614;10.226;2023-09-19T06:58:09;2.00;;;1.20;;
23800;SDS011;12081;48.614;10.226;2023-09-19T07:00:54;2.67;;;1.30;;
23800;SDS011;12081;48.614;10.226;2023-09-19T07:03:38;2.13;;;1.07;;
23800;SDS011;12081;48.614;10.226;2023-09-19T07:06:23;2.93;;;1.33;;
23800;SDS011;12081;48.614;10.226;2023-09-19T07:09:08;1.43;;;1.07;;
23800;SDS011;12081;48.614;10.226;2023-09-19T07:11:53;3.30;;;1.07;;
23800;SDS011;12081;48.614;10.226;2023-09-19T07:14:38;1.37;;;1.10;;
23800;SDS011;12081;48.614;10.226;2023-09-19T07:17:22;3.10;;;1.50;;
23800;SDS011;12081;48.614;10.226;2023-09-19T07:20:07;2.00;;;1.20;;
23800;SDS011;12081;48.614;10.226;2023-09-19T07:22:52;4.17;;;1.10;;
23800;SDS011;12081;48.614;10.226;2023-09-19T07:25:38;1.47;;;0.87;;
23800;SDS011;12081;48.614;10.226;2023-09-19T07:28:22;1.90;;;0.90;;
23800;SDS011;12081;48.614;10.226;2023-09-19T07:31:06;2.50;;;1.27;;
23800;SDS011;12081;48.614;10.226;2023-09-19T07:33:53;2.43;;;1.23;;
23800;SDS011;12081;48.614;10.226;2023-09-19T07:36:37;4.47;;;1.50;;
23800;SDS011;12081;48.614;10.226;2023-09-19T07:39:22;4.67;;;1.30;;
23800;SDS011;12081;48.614;10.226;2023-09-19T07:42:06;2.60;;;1.10;;
23800;SDS011;12081;48.614;10.226;2023-09-19T07:44:51;2.17;;;1.20;;
23800;SDS011;12081;48.614;10.226;2023-09-19T07:47:37;4.60;;;1.50;;
23800;SDS011;12081;48.614;10.226;2023-09-19T07:50:22;2.50;;;1.37;;
23800;SDS011;12081;48.614;10.226;2023-09-19T07:53:06;4.90;;;1.30;;
23800;SDS011;12081;48.614;10.226;2023-09-19T07:55:51;1.30;;;1.20;;
23800;SDS011;12081;48.614;10.226;2023-09-19T07:58:39;3.20;;;1.53;;
23800;SDS011;12081;48.614;10.226;2023-09-19T08:01:28;2.93;;;1.20;;
23800;SDS011;12081;48.614;10.226;2023-09-19T08:04:11;2.57;;;1.00;;
23800;SDS011;12081;48.614;10.226;2023-09-19T08:06:56;0.80;;;0.80;;
23800;SDS011;12081;48.614;10.226;2023-09-19T08:09:44;2.40;;;0.70;;
23800;SDS011;12081;48.614;10.226;2023-09-19T08:12:30;1.73;;;0.90;;
23800;SDS011;12081;48.614;10.226;2023-09-19T08:15:15;1.03;;;0.60;;
23800;SDS011;12081;48.614;10.226;2023-09-19T08:17:59;0.70;;;0.67;;
23800;SDS011;12081;48.614;10.226;2023-09-19T08:20:49;1.20;;;0.60;;
23800;SDS011;12081;48.614;10.226;2023-09-19T08:23:35;1.33;;;0.70;;
23800;SDS011;12081;48.614;10.226;2023-09-19T08:26:19;1.17;;;0.50;;
23800;SDS011;12081;48.614;10.226;2023-09-19T08:29:03;1.17;;;0.30;;
23800;SDS011;12081;48.614;10.226;2023-09-19T08:31:50;1.80;;;0.40;;
23800;SDS011;12081;48.614;10.226;2023-09-19T08:34:34;1.23;;;0.40;;
23800;SDS011;12081;48.614;10.226;2023-09-19T08:37:22;0.50;;;0.30;;
23800;SDS011;12081;48.614;10.226;2023-09-19T08:40:06;0.70;;;0.40;;
23800;SDS011;12081;48.614;10.226;2023-09-19T08:42:54;1.13;;;0.50;;
23800;SDS011;12081;48.614;10.226;2023-09-19T08:45:39;0.85;;;0.57;;
23800;SDS011;12081;48.614;10.226;2023-09-19T08:48:27;1.23;;;0.50;;
23800;SDS011;12081;48.614;10.226;2023-09-19T08:51:16;2.05;;;0.70;;
23800;SDS011;12081;48.614;10.226;2023-09-19T08:56:57;0.82;;;0.52;;
23800;SDS011;12081;48.614;10.226;2023-09-19T08:59:51;0.75;;;0.60;;
23800;SDS011;12081;48.614;10.226;2023-09-19T09:02:38;0.60;;;0.57;;
23800;SDS011;12081;48.614;10.226;2023-09-19T09:05:24;1.15;;;0.52;;
23800;SDS011;12081;48.614;10.226;2023-09-19T09:08:10;1.55;;;0.75;;
23800;SDS011;12081;48.614;10.226;2023-09-19T09:10:55;1.55;;;0.70;;
23800;SDS011;12081;48.614;10.226;2023-09-19T09:13:41;1.40;;;0.70;;
23800;SDS011;12081;48.614;10.226;2023-09-19T09:16:26;2.33;;;0.95;;
23800;SDS011;12081;48.614;10.226;2023-09-19T09:19:10;1.10;;;0.70;;
23800;SDS011;12081;48.614;10.226;2023-09-19T09:21:54;1.00;;;0.65;;
23800;SDS011;12081;48.614;10.226;2023-09-19T09:27:38;2.53;;;0.90;;
23800;SDS011;12081;48.614;10.226;2023-09-19T09:30:34;1.35;;;0.80;;
23800;SDS011;12081;48.614;10.226;2023-09-19T09:33:20;2.97;;;0.90;;
23800;SDS011;12081;48.614;10.226;2023-09-19T09:36:05;1.00;;;0.70;;
23800;SDS011;12081;48.614;10.226;2023-09-19T09:38:50;3.10;;;1.00;;
23800;SDS011;12081;48.614;10.226;2023-09-19T09:41:38;1.77;;;0.90;;
23800;SDS011;12081;48.614;10.226;2023-09-19T09:44:23;1.48;;;1.00;;
23800;SDS011;12081;48.614;10.226;2023-09-19T09:47:07;1.38;;;1.00;;
23800;SDS011;12081;48.614;10.226;2023-09-19T09:50:10;1.27;;;0.80;;
23800;SDS011;12081;48.614;10.226;2023-09-19T09:53:00;1.05;;;0.80;;
23800;SDS011;12081;48.614;10.226;2023-09-19T09:59:04;1.40;;;0.80;;
23800;SDS011;12081;48.614;10.226;2023-09-19T10:01:48;1.60;;;0.90;;
23800;SDS011;12081;48.614;10.226;2023-09-19T10:04:33;1.83;;;0.80;;
23800;SDS011;12081;48.614;10.226;2023-09-19T10:07:29;1.98;;;1.10;;
23800;SDS011;12081;48.614;10.226;2023-09-19T10:10:34;1.77;;;0.85;;
23800;SDS011;12081;48.614;10.226;2023-09-19T10:13:25;2.75;;;1.00;;
23800;SDS011;12081;48.614;10.226;2023-09-19T10:16:12;2.10;;;0.98;;
23800;SDS011;12081;48.614;10.226;2023-09-19T10:18:58;1.83;;;1.00;;
23800;SDS011;12081;48.614;10.226;2023-09-19T10:21:49;2.20;;;0.93;;
23800;SDS011;12081;48.614;10.226;2023-09-19T10:24:35;2.30;;;1.10;;
23800;SDS011;12081;48.614;10.226;2023-09-19T10:27:21;1.35;;;0.88;;
23800;SDS011;12081;48.614;10.226;2023-09-19T10:30:09;1.42;;;1.05;;
23800;SDS011;12081;48.614;10.226;2023-09-19T10:32:57;1.42;;;0.95;;
23800;SDS011;12081;48.614;10.226;2023-09-19T10:35:46;2.85;;;0.98;;
23800;SDS011;12081;48.614;10.226;2023-09-19T10:38:31;1.45;;;1.05;;
23800;SDS011;12081;48.614;10.226;2023-09-19T10:41:17;4.43;;;1.10;;
23800;SDS011;12081;48.614;10.226;2023-09-19T10:44:05;2.97;;;1.00;;
23800;SDS011;12081;48.614;10.226;2023-09-19T10:46:49;1.23;;;0.80;;
23800;SDS011;12081;48.614;10.226;2023-09-19T10:49:42;2.45;;;0.90;;
23800;SDS011;12081;48.614;10.226;2023-09-19T10:52:29;1.88;;;1.02;;
23800;SDS011;12081;48.614;10.226;2023-09-19T10:55:16;1.00;;;0.80;;
23800;SDS011;12081;48.614;10.226;2023-09-19T10:58:02;1.52;;;1.27;;
23800;SDS011;12081;48.614;10.226;2023-09-19T11:00:57;6.15;;;1.10;;
23800;SDS011;12081;48.614;10.226;2023-09-19T11:04:20;2.88;;;1.17;;
23800;SDS011;12081;48.614;10.226;2023-09-19T11:07:20;1.27;;;0.90;;
23800;SDS011;12081;48.614;10.226;2023-09-19T11:10:04;1.00;;;0.80;;
23800;SDS011;12081;48.614;10.226;2023-09-19T11:12:53;1.48;;;1.05;;
23800;SDS011;12081;48.614;10.226;2023-09-19T11:27:09;2.00;;;1.08;;
23800;SDS011;12081;48.614;10.226;2023-09-19T11:30:25;3.42;;;1.20;;
23800;SDS011;12081;48.614;10.226;2023-09-19T11:33:25;1.15;;;0.80;;
23800;SDS011;12081;48.614;10.226;2023-09-19T11:36:26;2.72;;;0.88;;
23800;SDS011;12081;48.614;10.226;2023-09-19T11:39:26;2.22;;;1.00;;
23800;SDS011;12081;48.614;10.226;2023-09-19T11:48:33;0.73;;;0.73;;
23800;SDS011;12081;48.614;10.226;2023-09-19T11:51:19;3.92;;;1.02;;
23800;SDS011;12081;48.614;10.226;2023-09-19T11:54:10;2.17;;;1.02;;
23800;SDS011;12081;48.614;10.226;2023-09-19T11:57:02;1.80;;;1.10;;
23800;SDS011;12081;48.614;10.226;2023-09-19T11:59:46;2.13;;;0.98;;
23800;SDS011;12081;48.614;10.226;2023-09-19T12:02:36;2.78;;;1.00;;
23800;SDS011;12081;48.614;10.226;2023-09-19T12:05:30;2.97;;;1.10;;
23800;SDS011;12081;48.614;10.226;2023-09-19T12:08:17;1.75;;;1.00;;
23800;SDS011;12081;48.614;10.226;2023-09-19T12:11:04;2.45;;;0.90;;
23800;SDS011;12081;48.614;10.226;2023-09-19T12:13:51;3.85;;;1.20;;
23800;SDS011;12081;48.614;10.226;2023-09-19T12:16:36;1.20;;;0.93;;
23800;SDS011;12081;48.614;10.226;2023-09-19T12:19:21;2.47;;;0.93;;
23800;SDS011;12081;48.614;10.226;2023-09-19T12:22:07;1.60;;;0.88;;
23800;SDS011;12081;48.614;10.226;2023-09-19T12:24:52;1.45;;;1.05;;
23800;SDS011;12081;48.614;10.226;2023-09-19T12:27:45;1.33;;;0.75;;
23800;SDS011;12081;48.614;10.226;2023-09-19T12:30:39;1.10;;;1.00;;
23800;SDS011;12081;48.614;10.226;2023-09-19T12:33:25;1.20;;;0.90;;
23800;SDS011;12081;48.614;10.226;2023-09-19T12:36:23;1.25;;;0.93;;
23800;SDS011;12081;48.614;10.226;2023-09-19T12:39:23;4.85;;;1.02;;
23800;SDS011;12081;48.614;10.226;2023-09-19T12:42:09;1.30;;;1.08;;
23800;SDS011;12081;48.614;10.226;2023-09-19T12:44:54;1.33;;;0.75;;
23800;SDS011;12081;48.614;10.226;2023-09-19T12:47:40;0.85;;;0.70;;
23800;SDS011;12081;48.614;10.226;2023-09-19T12:50:27;2.08;;;1.13;;
23800;SDS011;12081;48.614;10.226;2023-09-19T12:53:24;2.72;;;1.00;;
23800;SDS011;12081;48.614;10.226;2023-09-19T12:56:11;1.83;;;0.90;;
23800;SDS011;12081;48.614;10.226;2023-09-19T12:58:58;1.30;;;0.90;;
23800;SDS011;12081;48.614;10.226;2023-09-19T13:01:44;0.95;;;0.80;;
23800;SDS011;12081;48.614;10.226;2023-09-19T13:04:30;1.40;;;0.90;;
23800;SDS011;12081;48.614;10.226;2023-09-19T13:10:28;2.00;;;1.05;;
23800;SDS011;12081;48.614;10.226;2023-09-19T13:13:22;0.70;;;0.70;;
23800;SDS011;12081;48.614;10.226;2023-09-19T13:16:11;1.98;;;0.90;;
23800;SDS011;12081;48.614;10.226;2023-09-19T13:18:58;3.30;;;0.90;;
23800;SDS011;12081;48.614;10.226;2023-09-19T13:21:42;2.33;;;1.00;;
23800;SDS011;12081;48.614;10.226;2023-09-19T13:24:33;1.00;;;0.73;;
23800;SDS011;12081;48.614;10.226;2023-09-19T13:27:19;1.30;;;1.05;;
23800;SDS011;12081;48.614;10.226;2023-09-19T13:30:03;1.00;;;0.90;;
23800;SDS011;12081;48.614;10.226;2023-09-19T13:32:48;2.20;;;0.90;;
23800;SDS011;12081;48.614;10.226;2023-09-19T13:35:33;0.93;;;0.80;;
23800;SDS011;12081;48.614;10.226;2023-09-19T13:38:16;1.17;;;0.80;;
23800;SDS011;12081;48.614;10.226;2023-09-19T13:41:02;2.63;;;0.95;;
23800;SDS011;12081;48.614;10.226;2023-09-19T13:43:46;1.38;;;0.90;;
23800;SDS011;12081;48.614;10.226;2023-09-19T13:46:32;1.85;;;0.90;;
23800;SDS011;12081;48.614;10.226;2023-09-19T13:49:18;1.02;;;0.70;;
23800;SDS011;12081;48.614;10.226;2023-09-19T13:52:02;1.65;;;0.90;;
23800;SDS011;12081;48.614;10.226;2023-09-19T13:54:51;1.65;;;0.80;;
23800;SDS011;12081;48.614;10.226;2023-09-19T13:57:42;3.47;;;0.82;;
23800;SDS011;12081;48.614;10.226;2023-09-19T14:00:27;1.40;;;1.13;;
23800;SDS011;12081;48.614;10.226;2023-09-19T14:03:12;1.25;;;0.90;;
23800;SDS011;12081;48.614;10.226;2023-09-19T14:05:56;2.22;;;0.93;;
23800;SDS011;12081;48.614;10.226;2023-09-19T14:08:40;2.38;;;0.73;;
23800;SDS011;12081;48.614;10.226;2023-09-19T14:11:25;1.92;;;1.00;;
23800;SDS011;12081;48.614;10.226;2023-09-19T14:14:09;3.05;;;0.68;;
23800;SDS011;12081;48.614;10.226;2023-09-19T14:16:54;3.22;;;0.98;;
23800;SDS011;12081;48.614;10.226;2023-09-19T14:19:38;1.27;;;0.88;;
23800;SDS011;12081;48.614;10.226;2023-09-19T14:22:25;1.70;;;0.90;;
23800;SDS011;12081;48.614;10.226;2023-09-19T14:25:10;0.98;;;0.70;;
23800;SDS011;12081;48.614;10.226;2023-09-19T14:27:54;1.58;;;0.88;;
23800;SDS011;12081;48.614;10.226;2023-09-19T14:30:38;1.95;;;1.13;;
23800;SDS011;12081;48.614;10.226;2023-09-19T14:33:23;2.42;;;0.82;;
23800;SDS011;12081;48.614;10.226;2023-09-19T14:36:08;1.75;;;0.93;;
23800;SDS011;12081;48.614;10.226;2023-09-19T14:38:53;1.48;;;0.82;;
23800;SDS011;12081;48.614;10.226;2023-09-19T14:41:38;2.58;;;0.90;;
23800;SDS011;12081;48.614;10.226;2023-09-19T14:44:22;1.08;;;0.98;;
23800;SDS011;12081;48.614;10.226;2023-09-19T14:47:07;6.30;;;0.90;;
23800;SDS011;12081;48.614;10.226;2023-09-19T14:49:51;3.10;;;1.00;;
23800;SDS011;12081;48.614;10.226;2023-09-19T14:52:35;2.70;;;0.90;;
23800;SDS011;12081;48.614;10.226;2023-09-19T14:55:19;2.58;;;1.42;;
23800;SDS011;12081;48.614;10.226;2023-09-19T14:58:03;2.03;;;0.82;;
23800;SDS011;12081;48.614;10.226;2023-09-19T15:00:48;1.55;;;0.90;;
23800;SDS011;12081;48.614;10.226;2023-09-19T15:03:32;2.67;;;1.05;;
23800;SDS011;12081;48.614;10.226;2023-09-19T15:06:18;1.17;;;0.95;;
23800;SDS011;12081;48.614;10.226;2023-09-19T15:09:03;1.83;;;1.05;;
23800;SDS011;12081;48.614;10.226;2023-09-19T15:11:53;4.03;;;0.98;;
23800;SDS011;12081;48.614;10.226;2023-09-19T15:14:38;1.70;;;0.90;;
23800;SDS011;12081;48.614;10.226;2023-09-19T15:17:22;2.35;;;0.95;;
23800;SDS011;12081;48.614;10.226;2023-09-19T15:20:08;2.20;;;1.17;;
23800;SDS011;12081;48.614;10.226;2023-09-19T15:22:57;1.92;;;1.20;;
23800;SDS011;12081;48.614;10.226;2023-09-19T15:25:47;1.92;;;1.08;;
23800;SDS011;12081;48.614;10.226;2023-09-19T15:28:32;1.10;;;0.82;;
23800;SDS011;12081;48.614;10.226;2023-09-19T15:31:17;1.73;;;1.00;;
23800;SDS011;12081;48.614;10.226;2023-09-19T15:34:02;1.42;;;0.90;;
23800;SDS011;12081;48.614;10.226;2023-09-19T15:36:47;2.17;;;1.17;;
23800;SDS011;12081;48.614;10.226;2023-09-19T15:39:31;2.00;;;1.13;;
23800;SDS011;12081;48.614;10.226;2023-09-19T15:42:19;1.65;;;0.95;;
23800;SDS011;12081;48.614;10.226;2023-09-19T15:45:03;1.27;;;0.98;;
23800;SDS011;12081;48.614;10.226;2023-09-19T15:47:47;2.35;;;1.17;;
23800;SDS011;12081;48.614;10.226;2023-09-19T15:50:31;1.63;;;0.90;;
23800;SDS011;12081;48.614;10.226;2023-09-19T15:53:15;1.10;;;0.95;;
23800;SDS011;12081;48.614;10.226;2023-09-19T15:56:05;1.50;;;1.00;;
23800;SDS011;12081;48.614;10.226;2023-09-19T15:58:50;2.58;;;1.00;;
23800;SDS011;12081;48.614;10.226;2023-09-19T16:01:40;1.88;;;0.88;;
23800;SDS011;12081;48.614;10.226;2023-09-19T16:04:26;0.73;;;0.70;;
23800;SDS011;12081;48.614;10.226;2023-09-19T16:07:10;1.20;;;1.00;;
23800;SDS011;12081;48.614;10.226;2023-09-19T16:09:54;2.45;;;0.98;;
23800;SDS011;12081;48.614;10.226;2023-09-19T16:12:39;1.50;;;0.80;;
23800;SDS011;12081;48.614;10.226;2023-09-19T16:15:23;2.55;;;0.90;;
23800;SDS011;12081;48.614;10.226;2023-09-19T16:18:07;1.85;;;0.90;;
23800;SDS011;12081;48.614;10.226;2023-09-19T16:20:52;1.50;;;0.98;;
23800;SDS011;12081;48.614;10.226;2023-09-19T16:23:36;1.90;;;1.00;;
23800;SDS011;12081;48.614;10.226;2023-09-19T16:26:20;1.17;;;0.88;;
23800;SDS011;12081;48.614;10.226;2023-09-19T16:29:07;2.10;;;1.05;;
23800;SDS011;12081;48.614;10.226;2023-09-19T16:31:53;1.70;;;1.30;;
23800;SDS011;12081;48.614;10.226;2023-09-19T16:34:38;2.38;;;0.98;;
23800;SDS011;12081;48.614;10.226;2023-09-19T16:37:22;1.77;;;0.93;;
23800;SDS011;12081;48.614;10.226;2023-09-19T16:40:06;2.22;;;1.02;;
23800;SDS011;12081;48.614;10.226;2023-09-19T16:42:53;2.45;;;1.38;;
23800;SDS011;12081;48.614;10.226;2023-09-19T16:45:37;2.80;;;1.23;;
23800;SDS011;12081;48.614;10.226;2023-09-19T16:48:23;1.80;;;1.13;;
23800;SDS011;12081;48.614;10.226;2023-09-19T16:51:13;2.15;;;1.05;;
23800;SDS011;12081;48.614;10.226;2023-09-19T16:53:58;2.95;;;0.90;;
23800;SDS011;12081;48.614;10.226;2023-09-19T16:56:42;1.73;;;1.30;;
23800;SDS011;12081;48.614;10.226;2023-09-19T16:59:26;1.90;;;1.08;;
23800;SDS011;12081;48.614;10.226;2023-09-19T17:02:10;1.60;;;1.00;;
23800;SDS011;12081;48.614;10.226;2023-09-19T17:04:54;2.78;;;1.30;;
23800;SDS011;12081;48.614;10.226;2023-09-19T17:07:38;1.65;;;0.80;;
23800;SDS011;12081;48.614;10.226;2023-09-19T17:10:22;3.60;;;1.40;;
23800;SDS011;12081;48.614;10.226;2023-09-19T17:13:06;1.88;;;1.25;;
23800;SDS011;12081;48.614;10.226;2023-09-19T17:15:59;2.13;;;1.10;;
23800;SDS011;12081;48.614;10.226;2023-09-19T17:18:44;1.23;;;0.95;;
23800;SDS011;12081;48.614;10.226;2023-09-19T17:21:28;2.72;;;1.10;;
23800;SDS011;12081;48.614;10.226;2023-09-19T17:24:13;1.17;;;0.93;;
23800;SDS011;12081;48.614;10.226;2023-09-19T17:26:57;2.15;;;1.05;;
23800;SDS011;12081;48.614;10.226;2023-09-19T17:29:41;1.25;;;1.00;;
23800;SDS011;12081;48.614;10.226;2023-09-19T17:32:25;3.75;;;1.15;;
23800;SDS011;12081;48.614;10.226;2023-09-19T17:35:10;3.08;;;1.20;;
23800;SDS011;12081;48.614;10.226;2023-09-19T17:37:56;6.37;;;1.20;;
23800;SDS011;12081;48.614;10.226;2023-09-19T17:40:41;2.00;;;1.07;;
23800;SDS011;12081;48.614;10.226;2023-09-19T17:43:25;1.50;;;0.90;;
23800;SDS011;12081;48.614;10.226;2023-09-19T17:46:10;2.08;;;1.15;;
23800;SDS011;12081;48.614;10.226;2023-09-19T17:48:58;3.03;;;1.10;;
23800;SDS011;12081;48.614;10.226;2023-09-19T17:51:43;2.90;;;1.17;;
23800;SDS011;12081;48.614;10.226;2023-09-19T17:54:27;1.93;;;1.23;;
23800;SDS011;12081;48.614;10.226;2023-09-19T17:57:11;2.47;;;1.20;;
23800;SDS011;12081;48.614;10.226;2023-09-19T17:59:55;1.67;;;1.10;;
23800;SDS011;12081;48.614;10.226;2023-09-19T18:02:39;2.17;;;1.27;;
23800;SDS011;12081;48.614;10.226;2023-09-19T18:05:23;2.73;;;1.23;;
23800;SDS011;12081;48.614;10.226;2023-09-19T18:08:08;1.20;;;1.10;;
23800;SDS011;12081;48.614;10.226;2023-09-19T18:10:52;2.70;;;1.30;;
23800;SDS011;12081;48.614;10.226;2023-09-19T18:13:38;3.33;;;1.10;;
23800;SDS011;12081;48.614;10.226;2023-09-19T18:16:23;2.23;;;1.17;;
23800;SDS011;12081;48.614;10.226;2023-09-19T18:19:08;2.07;;;1.37;;
23800;SDS011;12081;48.614;10.226;2023-09-19T18:21:52;2.47;;;1.10;;
23800;SDS011;12081;48.614;10.226;2023-09-19T18:24:36;4.73;;;1.50;;
23800;SDS011;12081;48.614;10.226;2023-09-19T18:27:21;2.83;;;1.20;;
23800;SDS011;12081;48.614;10.226;2023-09-19T18:30:06;2.50;;;1.27;;
23800;SDS011;12081;48.614;10.226;2023-09-19T18:32:52;1.53;;;0.90;;
23800;SDS011;12081;48.614;10.226;2023-09-19T18:35:37;4.10;;;1.40;;
23800;SDS011;12081;48.614;10.226;2023-09-19T18:38:21;3.33;;;1.20;;
23800;SDS011;12081;48.614;10.226;2023-09-19T18:41:08;2.73;;;1.27;;
23800;SDS011;12081;48.614;10.226;2023-09-19T18:43:53;2.63;;;1.43;;
23800;SDS011;12081;48.614;10.226;2023-09-19T18:46:37;2.37;;;1.50;;
23800;SDS011;12081;48.614;10.226;2023-09-19T18:49:26;2.33;;;1.63;;
23800;SDS011;12081;48.614;10.226;2023-09-19T18:52:10;2.67;;;1.40;;
23800;SDS011;12081;48.614;10.226;2023-09-19T18:54:54;2.57;;;1.60;;
23800;SDS011;12081;48.614;10.226;2023-09-19T18:57:39;2.97;;;1.30;;
23800;SDS011;12081;48.614;10.226;2023-09-19T19:00:24;3.10;;;1.40;;
23800;SDS011;12081;48.614;10.226;2023-09-19T19:03:12;2.00;;;1.20;;
23800;SDS011;12081;48.614;10.226;2023-09-19T19:05:58;3.10;;;1.60;;
23800;SDS011;12081;48.614;10.226;2023-09-19T19:08:51;4.83;;;1.53;;
23800;SDS011;12081;48.614;10.226;2023-09-19T19:11:36;2.67;;;1.53;;
23800;SDS011;12081;48.614;10.226;2023-09-19T19:14:20;2.60;;;1.60;;
23800;SDS011;12081;48.614;10.226;2023-09-19T19:17:05;3.13;;;1.40;;
23800;SDS011;12081;48.614;10.226;2023-09-19T19:19:49;2.20;;;1.63;;
23800;SDS011;12081;48.614;10.226;2023-09-19T19:22:33;1.83;;;1.63;;
23800;SDS011;12081;48.614;10.226;2023-09-19T19:25:20;6.67;;;1.97;;
23800;SDS011;12081;48.614;10.226;2023-09-19T19:28:04;3.27;;;2.20;;
23800;SDS011;12081;48.614;10.226;2023-09-19T19:30:49;4.23;;;2.73;;
23800;SDS011;12081;48.614;10.226;2023-09-19T19:33:34;3.97;;;2.63;;
23800;SDS011;12081;48.614;10.226;2023-09-19T19:36:18;3.67;;;1.67;;
23800;SDS011;12081;48.614;10.226;2023-09-19T19:39:05;4.03;;;2.07;;
23800;SDS011;12081;48.614;10.226;2023-09-19T19:41:49;3.90;;;2.07;;